Time;durP1;ratioP1;P1;durP2;ratioP2;P2;SDS_P1;SDS_P2;PMS_P1;PMS_P2;Temp;Humidity;BMP_temperature;BMP_pressure;BME280_temperature;BME280_humidity;BME280_pressure;Samples;Min_cycle;Max_cycle;Signal;HPM_P1;HPM_P2
2023/08/24 00:01:42;;;;;;;4.75;3.00;;;;;;;;;;5005451;28;20521;-61
2023/08/24 00:04:10;;;;;;;5.93;3.28;;;;;;;;;;5022609;28;20049;-60
2023/08/24 00:06:36;;;;;;;4.15;2.80;;;;;;;;;;5042953;28;20063;-61
2023/08/24 00:09:05;;;;;;;3.58;2.50;;;;;;;;;;5020018;28;20062;-61
2023/08/24 00:11:31;;;;;;;5.78;3.33;;;;;;;;;;5004377;28;20053;-61
2023/08/24 00:13:59;;;;;;;5.80;3.40;;;;;;;;;;5003181;28;20054;-57
2023/08/24 00:16:25;;;;;;;5.40;3.15;;;;;;;;;;5018725;28;20541;-60
2023/08/24 00:18:52;;;;;;;7.00;3.33;;;;;;;;;;5001901;28;20058;-62
2023/08/24 00:21:22;;;;;;;3.92;2.92;;;;;;;;;;5017676;28;20112;-61
2023/08/24 00:23:49;;;;;;;7.53;3.75;;;;;;;;;;5016384;28;20141;-60
2023/08/24 00:26:18;;;;;;;5.93;3.13;;;;;;;;;;5016516;28;20088;-59
2023/08/24 00:28:45;;;;;;;4.65;3.58;;;;;;;;;;5009302;28;20587;-60
2023/08/24 00:31:12;;;;;;;10.05;4.00;;;;;;;;;;5011921;28;20136;-61
2023/08/24 00:33:39;;;;;;;6.53;3.30;;;;;;;;;;5018375;28;20061;-61
2023/08/24 00:36:06;;;;;;;6.72;4.10;;;;;;;;;;5003210;28;20548;-60
2023/08/24 00:38:32;;;;;;;6.35;3.78;;;;;;;;;;5006774;28;20413;-60
2023/08/24 00:40:59;;;;;;;5.55;3.42;;;;;;;;;;5032342;28;20140;-59
2023/08/24 00:43:26;;;;;;;6.18;3.60;;;;;;;;;;5023735;28;20246;-59
2023/08/24 00:45:53;;;;;;;7.10;3.83;;;;;;;;;;5021523;28;20595;-60
2023/08/24 00:48:21;;;;;;;7.70;3.28;;;;;;;;;;5021540;28;20060;-60
2023/08/24 00:50:47;;;;;;;8.27;3.95;;;;;;;;;;5016244;28;20138;-60
2023/08/24 00:53:13;;;;;;;4.90;3.50;;;;;;;;;;5015691;28;20112;-58
2023/08/24 00:55:40;;;;;;;8.07;3.47;;;;;;;;;;5009243;28;20116;-60
2023/08/24 00:58:07;;;;;;;7.65;3.55;;;;;;;;;;5002249;28;20078;-60
2023/08/24 01:00:34;;;;;;;5.43;3.00;;;;;;;;;;5003306;28;20059;-61
2023/08/24 01:03:00;;;;;;;7.40;3.67;;;;;;;;;;5011940;28;20054;-60
2023/08/24 01:05:28;;;;;;;7.30;3.70;;;;;;;;;;5021176;28;20058;-61
2023/08/24 01:07:54;;;;;;;8.23;3.92;;;;;;;;;;5026382;28;20077;-61
2023/08/24 01:10:21;;;;;;;7.60;3.80;;;;;;;;;;5040458;28;20115;-61
2023/08/24 01:12:53;;;;;;;10.40;4.28;;;;;;;;;;5027701;28;20105;-60
2023/08/24 01:15:20;;;;;;;9.75;4.10;;;;;;;;;;5008564;28;20054;-59
2023/08/24 01:17:47;;;;;;;7.35;4.00;;;;;;;;;;5022374;28;20132;-61
2023/08/24 01:20:15;;;;;;;5.13;4.47;;;;;;;;;;5006611;28;20061;-61
2023/08/24 01:22:49;;;;;;;4.78;3.83;;;;;;;;;;5001812;28;20053;-59
2023/08/24 01:25:17;;;;;;;6.07;4.15;;;;;;;;;;5019013;28;20068;-57
2023/08/24 01:27:44;;;;;;;6.10;4.43;;;;;;;;;;5043234;28;20116;-59
2023/08/24 01:30:10;;;;;;;7.97;4.85;;;;;;;;;;5039233;28;20099;-57
2023/08/24 01:32:37;;;;;;;7.13;4.65;;;;;;;;;;5014636;28;20054;-61
2023/08/24 01:35:05;;;;;;;7.28;4.78;;;;;;;;;;5041727;28;20057;-59
2023/08/24 01:37:32;;;;;;;5.28;3.97;;;;;;;;;;5045297;28;20160;-61
2023/08/24 01:40:09;;;;;;;8.77;4.53;;;;;;;;;;5038395;28;20073;-60
2023/08/24 01:42:42;;;;;;;8.43;3.90;;;;;;;;;;5033360;28;20077;-60
2023/08/24 01:45:09;;;;;;;7.95;4.22;;;;;;;;;;5024852;28;20068;-61
2023/08/24 01:47:36;;;;;;;4.97;4.28;;;;;;;;;;5012680;28;20112;-61
2023/08/24 01:50:03;;;;;;;7.32;4.47;;;;;;;;;;5005594;28;20062;-58
2023/08/24 01:52:31;;;;;;;4.90;4.13;;;;;;;;;;5005919;28;20346;-61
2023/08/24 01:55:01;;;;;;;8.73;4.32;;;;;;;;;;5025882;28;20558;-61
2023/08/24 01:57:27;;;;;;;11.65;4.35;;;;;;;;;;5025262;28;20512;-61
2023/08/24 01:59:53;;;;;;;5.13;4.38;;;;;;;;;;5024504;28;20073;-63
2023/08/24 02:02:21;;;;;;;7.47;4.93;;;;;;;;;;5031119;28;20064;-61
2023/08/24 02:04:47;;;;;;;6.35;3.92;;;;;;;;;;5005178;28;20050;-60
2023/08/24 02:07:13;;;;;;;6.35;4.30;;;;;;;;;;5008886;28;20137;-60
2023/08/24 02:09:40;;;;;;;7.53;4.88;;;;;;;;;;5043689;28;20057;-60
2023/08/24 02:12:06;;;;;;;7.18;5.40;;;;;;;;;;5022075;28;20166;-60
2023/08/24 02:14:33;;;;;;;8.90;5.13;;;;;;;;;;5025106;28;20065;-58
2023/08/24 02:16:59;;;;;;;7.40;4.90;;;;;;;;;;5024277;28;20054;-59
2023/08/24 02:19:26;;;;;;;8.38;4.55;;;;;;;;;;5024317;28;20065;-61
2023/08/24 02:21:52;;;;;;;8.38;4.88;;;;;;;;;;5014844;28;20544;-60
2023/08/24 02:24:19;;;;;;;6.55;5.03;;;;;;;;;;5004534;28;20109;-60
2023/08/24 02:26:45;;;;;;;13.27;5.43;;;;;;;;;;5004147;28;20058;-60
2023/08/24 02:29:12;;;;;;;9.00;5.50;;;;;;;;;;5020577;28;20053;-61
2023/08/24 02:31:38;;;;;;;6.07;5.00;;;;;;;;;;5023959;28;20053;-59
2023/08/24 02:34:05;;;;;;;9.05;5.13;;;;;;;;;;5023709;28;20077;-62
2023/08/24 02:36:33;;;;;;;12.27;5.57;;;;;;;;;;5037416;28;20060;-61
2023/08/24 02:39:00;;;;;;;7.75;5.57;;;;;;;;;;5031566;28;20496;-61
2023/08/24 02:41:27;;;;;;;8.95;5.32;;;;;;;;;;5016753;28;20529;-61
2023/08/24 02:43:53;;;;;;;6.28;5.13;;;;;;;;;;5019032;28;20081;-60
2023/08/24 02:46:20;;;;;;;9.82;5.40;;;;;;;;;;5003818;28;20148;-59
2023/08/24 02:48:47;;;;;;;7.82;5.40;;;;;;;;;;5020015;28;20149;-58
2023/08/24 02:51:13;;;;;;;8.30;5.50;;;;;;;;;;5015809;28;20206;-61
2023/08/24 02:53:40;;;;;;;8.98;6.18;;;;;;;;;;5004418;28;20067;-61
2023/08/24 02:56:06;;;;;;;12.48;5.95;;;;;;;;;;5004223;28;20055;-59
2023/08/24 02:58:33;;;;;;;9.32;5.60;;;;;;;;;;5004259;28;20137;-61
2023/08/24 03:01:05;;;;;;;9.05;6.07;;;;;;;;;;5004110;28;20536;-61
2023/08/24 03:03:31;;;;;;;7.93;6.05;;;;;;;;;;5012567;28;20661;-60
2023/08/24 03:05:59;;;;;;;9.30;5.72;;;;;;;;;;5028763;28;20124;-61
2023/08/24 03:08:25;;;;;;;8.52;5.80;;;;;;;;;;5023354;28;20064;-61
2023/08/24 03:10:51;;;;;;;7.65;5.32;;;;;;;;;;5023627;28;20163;-60
2023/08/24 03:13:18;;;;;;;9.55;6.20;;;;;;;;;;5023450;28;20053;-59
2023/08/24 03:15:44;;;;;;;9.15;6.38;;;;;;;;;;5023661;28;20054;-59
2023/08/24 03:18:12;;;;;;;11.02;5.78;;;;;;;;;;5034039;28;20049;-59
2023/08/24 03:20:39;;;;;;;8.45;5.75;;;;;;;;;;5010372;28;20050;-60
2023/08/24 03:23:06;;;;;;;8.80;5.60;;;;;;;;;;5003695;28;20599;-60
2023/08/24 03:25:35;;;;;;;9.13;6.50;;;;;;;;;;5017330;28;20053;-62
2023/08/24 03:28:02;;;;;;;12.82;5.90;;;;;;;;;;5043766;28;20140;-61
2023/08/24 03:30:28;;;;;;;9.35;6.22;;;;;;;;;;5021677;28;20455;-61
2023/08/24 03:32:55;;;;;;;9.07;6.20;;;;;;;;;;5031088;28;20057;-61
2023/08/24 03:35:22;;;;;;;10.35;6.40;;;;;;;;;;5023715;28;20054;-58
2023/08/24 03:37:48;;;;;;;12.82;6.45;;;;;;;;;;5020430;28;20097;-62
2023/08/24 03:40:15;;;;;;;8.23;6.63;;;;;;;;;;5019325;28;20733;-62
2023/08/24 03:42:41;;;;;;;8.73;6.50;;;;;;;;;;5023051;28;20548;-60
2023/08/24 03:45:08;;;;;;;11.77;7.05;;;;;;;;;;5025086;28;20084;-57
2023/08/24 03:47:34;;;;;;;8.90;7.05;;;;;;;;;;5043646;28;20496;-61
2023/08/24 03:50:00;;;;;;;8.85;6.68;;;;;;;;;;5022345;28;20051;-61
2023/08/24 03:52:27;;;;;;;9.55;6.55;;;;;;;;;;5005456;28;20062;-59
2023/08/24 03:54:53;;;;;;;13.25;7.05;;;;;;;;;;5003324;28;20692;-61
2023/08/24 03:57:20;;;;;;;14.68;8.13;;;;;;;;;;5003439;28;20058;-60
2023/08/24 03:59:46;;;;;;;29.23;13.30;;;;;;;;;;5006070;28;20087;-60
2023/08/24 04:02:13;;;;;;;25.80;12.70;;;;;;;;;;5004129;28;20046;-61
2023/08/24 04:04:39;;;;;;;28.05;13.57;;;;;;;;;;5019025;28;20248;-60
2023/08/24 04:07:06;;;;;;;20.25;11.43;;;;;;;;;;5002713;28;20627;-56
2023/08/24 04:09:32;;;;;;;19.02;10.98;;;;;;;;;;5003328;28;20138;-59
2023/08/24 04:11:58;;;;;;;15.65;9.27;;;;;;;;;;5003433;28;20085;-60
2023/08/24 04:14:25;;;;;;;19.38;10.00;;;;;;;;;;5006496;28;20066;-59
2023/08/24 04:16:52;;;;;;;14.25;8.60;;;;;;;;;;5042708;28;20084;-60
2023/08/24 04:19:18;;;;;;;14.88;8.05;;;;;;;;;;5037400;28;20491;-59
2023/08/24 04:21:45;;;;;;;11.98;8.10;;;;;;;;;;5042414;28;20100;-60
2023/08/24 04:24:11;;;;;;;14.27;7.57;;;;;;;;;;5031266;28;20137;-59
2023/08/24 04:26:38;;;;;;;15.57;7.68;;;;;;;;;;5022507;28;20612;-60
2023/08/24 04:29:04;;;;;;;9.50;7.00;;;;;;;;;;5012552;28;20141;-59
2023/08/24 04:31:30;;;;;;;15.73;7.53;;;;;;;;;;5018289;28;20165;-59
2023/08/24 04:33:57;;;;;;;11.98;7.20;;;;;;;;;;5003206;28;20062;-63
2023/08/24 04:36:23;;;;;;;9.60;6.72;;;;;;;;;;5003279;28;20942;-60
2023/08/24 04:38:49;;;;;;;15.95;8.65;;;;;;;;;;5002258;28;20054;-59
2023/08/24 04:41:16;;;;;;;11.40;6.85;;;;;;;;;;5017735;28;20145;-59
2023/08/24 04:43:42;;;;;;;10.50;6.82;;;;;;;;;;5017247;28;20214;-60
2023/08/24 04:46:09;;;;;;;8.73;6.93;;;;;;;;;;5010709;28;20112;-59
2023/08/24 04:48:35;;;;;;;11.27;7.47;;;;;;;;;;5002256;28;20509;-59
2023/08/24 04:51:02;;;;;;;7.97;6.80;;;;;;;;;;5002398;28;20109;-61
2023/08/24 04:53:29;;;;;;;13.25;7.53;;;;;;;;;;5001706;28;20054;-60
2023/08/24 04:55:55;;;;;;;7.95;6.38;;;;;;;;;;5002079;28;20047;-59
2023/08/24 04:58:22;;;;;;;10.30;6.65;;;;;;;;;;5018851;28;20062;-61
2023/08/24 05:00:48;;;;;;;9.55;6.88;;;;;;;;;;5008788;28;20050;-60
2023/08/24 05:03:15;;;;;;;8.48;7.20;;;;;;;;;;5007441;28;20561;-61
2023/08/24 05:05:41;;;;;;;9.88;7.70;;;;;;;;;;5010415;28;20064;-58
2023/08/24 05:08:11;;;;;;;13.80;7.38;;;;;;;;;;5025170;28;20532;-60
2023/08/24 05:10:39;;;;;;;10.05;7.03;;;;;;;;;;5025489;28;20065;-59
2023/08/24 05:13:05;;;;;;;14.57;7.85;;;;;;;;;;5010728;28;20057;-55
2023/08/24 05:15:32;;;;;;;10.68;7.82;;;;;;;;;;5024571;28;20053;-58
2023/08/24 05:17:59;;;;;;;12.13;6.85;;;;;;;;;;5024937;28;20064;-58
2023/08/24 05:20:26;;;;;;;8.93;7.57;;;;;;;;;;5025707;28;20057;-57
2023/08/24 05:22:54;;;;;;;12.55;7.18;;;;;;;;;;5016939;28;20058;-60
2023/08/24 05:25:21;;;;;;;13.48;8.05;;;;;;;;;;5004844;28;20062;-57
2023/08/24 05:27:48;;;;;;;13.00;7.00;;;;;;;;;;5006557;28;20141;-60
2023/08/24 05:30:15;;;;;;;10.38;7.45;;;;;;;;;;5005144;28;20493;-60
2023/08/24 05:32:41;;;;;;;12.68;6.78;;;;;;;;;;5005452;28;20528;-60
2023/08/24 05:35:08;;;;;;;10.40;7.78;;;;;;;;;;5005089;28;20145;-59
2023/08/24 05:37:35;;;;;;;12.07;7.57;;;;;;;;;;5009907;28;20060;-59
2023/08/24 05:40:02;;;;;;;11.52;7.43;;;;;;;;;;5021834;28;20140;-60
2023/08/24 05:42:30;;;;;;;10.15;7.25;;;;;;;;;;5012959;28;20069;-60
2023/08/24 05:44:57;;;;;;;12.55;7.45;;;;;;;;;;5008010;28;20227;-62
2023/08/24 05:47:23;;;;;;;10.85;6.93;;;;;;;;;;5024655;28;20563;-59
2023/08/24 05:49:49;;;;;;;11.43;6.95;;;;;;;;;;5027604;28;20062;-60
2023/08/24 05:52:16;;;;;;;17.10;8.07;;;;;;;;;;5036375;28;20064;-59
2023/08/24 05:54:42;;;;;;;12.52;6.90;;;;;;;;;;5025964;28;20065;-60
2023/08/24 05:57:08;;;;;;;11.93;7.47;;;;;;;;;;5018841;28;20046;-61
2023/08/24 05:59:35;;;;;;;16.65;7.13;;;;;;;;;;5007764;28;20078;-59
2023/08/24 06:02:02;;;;;;;12.30;7.70;;;;;;;;;;5027002;28;20149;-61
2023/08/24 06:04:29;;;;;;;8.55;6.68;;;;;;;;;;5023718;28;20065;-60
2023/08/24 06:06:55;;;;;;;12.82;7.03;;;;;;;;;;5019035;28;20235;-59
2023/08/24 06:09:21;;;;;;;10.48;6.43;;;;;;;;;;5016254;28;20814;-60
2023/08/24 06:11:48;;;;;;;10.77;6.88;;;;;;;;;;5024072;28;20054;-59
2023/08/24 06:14:15;;;;;;;13.80;6.85;;;;;;;;;;5023094;28;20649;-59
2023/08/24 06:16:41;;;;;;;8.45;6.38;;;;;;;;;;5012919;28;20068;-57
2023/08/24 06:19:08;;;;;;;9.23;6.57;;;;;;;;;;5004097;28;20140;-60
2023/08/24 06:21:34;;;;;;;10.68;6.82;;;;;;;;;;5026294;28;20050;-60
2023/08/24 06:24:01;;;;;;;10.20;6.55;;;;;;;;;;5023400;28;20054;-58
2023/08/24 06:26:27;;;;;;;11.13;6.78;;;;;;;;;;5023501;28;20213;-60
2023/08/24 06:28:55;;;;;;;8.80;7.13;;;;;;;;;;5019916;28;20567;-60
2023/08/24 06:31:22;;;;;;;9.52;7.20;;;;;;;;;;5023261;28;20063;-60
2023/08/24 06:33:48;;;;;;;10.13;7.50;;;;;;;;;;5005170;28;20050;-59
2023/08/24 06:36:15;;;;;;;10.52;7.68;;;;;;;;;;5016864;28;20841;-60
2023/08/24 06:38:41;;;;;;;10.90;7.25;;;;;;;;;;5040640;28;20060;-56
2023/08/24 06:41:11;;;;;;;13.50;7.75;;;;;;;;;;5028316;28;20061;-60
2023/08/24 06:43:39;;;;;;;12.68;7.50;;;;;;;;;;5021937;28;20058;-59
2023/08/24 06:46:08;;;;;;;11.52;7.32;;;;;;;;;;5035814;28;20066;-59
2023/08/24 06:48:35;;;;;;;14.10;6.97;;;;;;;;;;5008602;28;20054;-58
2023/08/24 06:51:01;;;;;;;8.00;5.28;;;;;;;;;;5010961;28;20054;-58
2023/08/24 06:53:28;;;;;;;13.45;7.13;;;;;;;;;;5004295;28;20583;-58
2023/08/24 06:55:55;;;;;;;12.65;7.38;;;;;;;;;;5017763;28;20054;-59
2023/08/24 06:58:22;;;;;;;11.45;7.72;;;;;;;;;;5023542;28;20536;-59
2023/08/24 07:00:50;;;;;;;10.80;7.53;;;;;;;;;;5017583;28;20056;-59
2023/08/24 07:03:17;;;;;;;12.48;9.05;;;;;;;;;;5024605;28;20063;-58
2023/08/24 07:05:44;;;;;;;10.50;7.60;;;;;;;;;;5016446;28;20058;-58
2023/08/24 07:08:11;;;;;;;9.63;7.95;;;;;;;;;;5022061;28;20042;-58
2023/08/24 07:10:37;;;;;;;11.90;8.68;;;;;;;;;;5017623;28;20080;-59
2023/08/24 07:13:05;;;;;;;10.57;7.75;;;;;;;;;;5043365;28;20053;-58
2023/08/24 07:15:33;;;;;;;13.75;8.10;;;;;;;;;;5037155;28;20061;-58
2023/08/24 07:18:05;;;;;;;12.93;8.93;;;;;;;;;;5027782;28;20795;-58
2023/08/24 07:20:32;;;;;;;10.70;8.90;;;;;;;;;;5035109;28;20061;-59
2023/08/24 07:22:58;;;;;;;10.98;9.15;;;;;;;;;;5023174;28;20060;-59
2023/08/24 07:25:25;;;;;;;16.58;9.55;;;;;;;;;;5021156;28;20475;-59
2023/08/24 07:27:52;;;;;;;12.77;9.32;;;;;;;;;;5021938;28;20137;-59
2023/08/24 07:30:18;;;;;;;14.10;8.90;;;;;;;;;;5027352;28;20480;-60
2023/08/24 07:32:59;;;;;;;12.48;9.80;;;;;;;;;;5026262;28;20049;-59
2023/08/24 07:35:26;;;;;;;14.27;9.82;;;;;;;;;;5024829;28;20139;-59
2023/08/24 07:37:53;;;;;;;12.90;9.13;;;;;;;;;;5037602;28;20978;-59
2023/08/24 07:40:19;;;;;;;18.65;10.18;;;;;;;;;;5036303;28;20555;-57
2023/08/24 07:42:46;;;;;;;14.00;9.93;;;;;;;;;;5010666;28;20937;-59
2023/08/24 07:45:14;;;;;;;17.05;10.45;;;;;;;;;;5026393;28;20054;-59
2023/08/24 07:47:40;;;;;;;12.80;10.20;;;;;;;;;;5028372;28;20065;-59
2023/08/24 07:50:07;;;;;;;14.90;9.57;;;;;;;;;;5022151;28;20060;-58
2023/08/24 07:52:34;;;;;;;12.88;10.10;;;;;;;;;;5033751;28;20064;-58
2023/08/24 07:55:03;;;;;;;13.20;10.70;;;;;;;;;;5040546;28;20160;-59
2023/08/24 07:57:31;;;;;;;17.05;10.23;;;;;;;;;;5036007;28;20510;-59
2023/08/24 07:59:58;;;;;;;16.80;10.45;;;;;;;;;;5023135;28;20085;-59
2023/08/24 08:02:24;;;;;;;13.23;9.68;;;;;;;;;;5020346;28;20073;-58
2023/08/24 08:04:51;;;;;;;14.10;10.02;;;;;;;;;;5021484;28;20058;-59
2023/08/24 08:07:17;;;;;;;15.23;10.48;;;;;;;;;;5025158;28;20058;-59
2023/08/24 08:09:44;;;;;;;14.73;9.63;;;;;;;;;;5004999;28;20141;-61
2023/08/24 08:12:10;;;;;;;16.13;10.65;;;;;;;;;;5019592;28;20501;-58
2023/08/24 08:14:36;;;;;;;14.70;10.32;;;;;;;;;;5021433;28;20160;-57
2023/08/24 08:17:03;;;;;;;13.60;9.73;;;;;;;;;;5020658;28;20057;-57
2023/08/24 08:19:30;;;;;;;15.05;10.07;;;;;;;;;;5022306;28;20521;-60
2023/08/24 08:21:57;;;;;;;12.50;9.63;;;;;;;;;;5022205;28;20077;-59
2023/08/24 08:24:23;;;;;;;16.08;9.70;;;;;;;;;;5021033;28;20148;-59
2023/08/24 08:26:52;;;;;;;13.40;9.77;;;;;;;;;;5021032;28;20141;-59
2023/08/24 08:29:19;;;;;;;14.38;9.95;;;;;;;;;;5031414;28;20157;-58
2023/08/24 08:31:45;;;;;;;13.95;9.55;;;;;;;;;;5021492;28;20054;-59
2023/08/24 08:34:12;;;;;;;14.05;10.07;;;;;;;;;;5021190;28;20046;-59
2023/08/24 08:36:38;;;;;;;14.13;10.15;;;;;;;;;;5026518;28;20078;-59
2023/08/24 08:39:05;;;;;;;15.50;9.85;;;;;;;;;;5026530;28;20061;-58
2023/08/24 08:41:34;;;;;;;14.18;9.55;;;;;;;;;;5036000;28;20057;-59
2023/08/24 08:44:04;;;;;;;14.05;10.23;;;;;;;;;;5039698;28;20053;-58
2023/08/24 08:46:32;;;;;;;16.17;10.18;;;;;;;;;;5037527;28;20057;-59
2023/08/24 08:49:00;;;;;;;13.60;9.88;;;;;;;;;;5027040;28;20054;-58
2023/08/24 08:51:27;;;;;;;12.02;9.38;;;;;;;;;;5025047;28;20155;-59
2023/08/24 08:53:53;;;;;;;13.82;9.30;;;;;;;;;;5041282;28;20120;-59
2023/08/24 08:56:20;;;;;;;13.82;9.50;;;;;;;;;;5025763;28;20101;-59
2023/08/24 08:58:48;;;;;;;16.70;9.52;;;;;;;;;;5024605;28;20061;-59
2023/08/24 09:01:14;;;;;;;9.70;8.70;;;;;;;;;;5035835;28;20852;-59
2023/08/24 09:03:42;;;;;;;13.52;8.85;;;;;;;;;;5030201;28;20548;-56
2023/08/24 09:06:09;;;;;;;12.48;8.30;;;;;;;;;;5020606;28;20057;-59
2023/08/24 09:08:36;;;;;;;14.45;9.00;;;;;;;;;;5025281;28;20050;-59
2023/08/24 09:11:03;;;;;;;13.23;8.82;;;;;;;;;;5032204;28;20562;-60
2023/08/24 09:13:30;;;;;;;11.55;8.88;;;;;;;;;;5040500;28;20085;-59
2023/08/24 09:16:05;;;;;;;12.98;8.82;;;;;;;;;;5027706;28;20161;-60
2023/08/24 09:18:38;;;;;;;14.40;8.77;;;;;;;;;;5024890;28;20069;-60
2023/08/24 09:21:09;;;;;;;14.38;8.45;;;;;;;;;;5023507;28;20597;-58
2023/08/24 09:23:35;;;;;;;14.50;8.77;;;;;;;;;;5005278;28;20537;-59
2023/08/24 09:26:02;;;;;;;9.95;7.78;;;;;;;;;;5009678;28;20066;-59
2023/08/24 09:28:29;;;;;;;13.20;8.98;;;;;;;;;;5024357;28;20064;-59
2023/08/24 09:30:55;;;;;;;12.80;8.73;;;;;;;;;;5021244;28;20046;-59
2023/08/24 09:33:24;;;;;;;13.13;9.40;;;;;;;;;;5024886;28;20060;-59
2023/08/24 09:35:52;;;;;;;15.20;9.40;;;;;;;;;;5011961;28;20082;-58
2023/08/24 09:38:19;;;;;;;10.63;9.27;;;;;;;;;;5019649;28;20141;-60
2023/08/24 09:40:49;;;;;;;12.85;9.90;;;;;;;;;;5014934;28;20053;-59
2023/08/24 09:43:15;;;;;;;12.15;9.57;;;;;;;;;;5024021;28;20053;-59
2023/08/24 09:45:51;;;;;;;15.88;9.57;;;;;;;;;;5017016;28;20137;-59
2023/08/24 09:48:18;;;;;;;11.65;8.30;;;;;;;;;;5004000;28;20054;-59
2023/08/24 09:50:46;;;;;;;10.68;7.65;;;;;;;;;;5017991;28;20505;-59
2023/08/24 09:53:17;;;;;;;11.68;8.13;;;;;;;;;;5043925;28;20507;-59
2023/08/24 09:55:44;;;;;;;11.90;8.05;;;;;;;;;;5043206;28;20060;-58
2023/08/24 09:58:11;;;;;;;11.18;7.80;;;;;;;;;;5032791;28;20431;-58
2023/08/24 10:00:37;;;;;;;12.90;7.45;;;;;;;;;;5027251;28;20517;-60
2023/08/24 10:03:04;;;;;;;9.23;7.55;;;;;;;;;;5020142;28;20141;-57
2023/08/24 10:05:31;;;;;;;17.60;7.53;;;;;;;;;;5023257;28;20049;-58
2023/08/24 10:08:14;;;;;;;10.25;7.93;;;;;;;;;;5014671;28;20061;-59
2023/08/24 10:10:42;;;;;;;13.68;7.88;;;;;;;;;;5004989;28;20168;-58
2023/08/24 10:13:14;;;;;;;15.23;8.73;;;;;;;;;;5021628;28;20085;-58
2023/08/24 10:15:46;;;;;;;13.55;8.73;;;;;;;;;;5023796;28;20437;-59
2023/08/24 10:18:14;;;;;;;10.68;7.57;;;;;;;;;;5015328;28;20152;-59
2023/08/24 10:20:42;;;;;;;10.80;7.28;;;;;;;;;;5025760;28;20469;-57
2023/08/24 10:23:10;;;;;;;9.93;7.35;;;;;;;;;;5026376;28;20050;-58
2023/08/24 10:25:37;;;;;;;10.75;6.95;;;;;;;;;;5033289;28;20061;-59
2023/08/24 10:28:04;;;;;;;16.23;7.40;;;;;;;;;;5036396;28;20208;-58
2023/08/24 10:30:31;;;;;;;7.43;6.25;;;;;;;;;;5028768;28;20504;-57
2023/08/24 10:32:58;;;;;;;12.10;6.35;;;;;;;;;;5022494;28;20428;-58
2023/08/24 10:35:26;;;;;;;7.93;5.80;;;;;;;;;;5023034;28;20049;-59
2023/08/24 10:37:53;;;;;;;10.57;7.30;;;;;;;;;;5023523;28;20057;-58
2023/08/24 10:40:30;;;;;;;13.30;8.20;;;;;;;;;;5027508;28;20050;-59
2023/08/24 10:42:58;;;;;;;9.43;6.72;;;;;;;;;;5022131;28;20054;-59
2023/08/24 10:45:25;;;;;;;9.00;7.38;;;;;;;;;;5026430;28;20543;-59
2023/08/24 10:47:53;;;;;;;12.40;7.72;;;;;;;;;;5016229;28;20138;-58
2023/08/24 10:50:21;;;;;;;12.80;8.60;;;;;;;;;;5004150;28;20133;-60
2023/08/24 10:52:48;;;;;;;15.35;8.60;;;;;;;;;;5031521;28;20432;-59
2023/08/24 10:55:25;;;;;;;12.45;8.30;;;;;;;;;;5022797;28;20112;-59
2023/08/24 10:57:59;;;;;;;23.08;9.20;;;;;;;;;;5017357;28;20054;-59
2023/08/24 11:00:31;;;;;;;16.48;8.95;;;;;;;;;;5026429;28;20057;-59
2023/08/24 11:02:57;;;;;;;12.30;8.85;;;;;;;;;;5034195;28;20565;-60
2023/08/24 11:05:30;;;;;;;11.98;8.63;;;;;;;;;;5035827;28;20057;-59
2023/08/24 11:07:59;;;;;;;11.70;8.80;;;;;;;;;;5023418;28;20126;-59
2023/08/24 11:10:41;;;;;;;13.57;9.10;;;;;;;;;;5038541;28;20574;-59
2023/08/24 11:13:10;;;;;;;17.73;10.13;;;;;;;;;;5020844;28;20425;-59
2023/08/24 11:15:39;;;;;;;14.13;9.45;;;;;;;;;;5009768;28;20084;-59
2023/08/24 11:18:24;;;;;;;13.88;9.57;;;;;;;;;;5022835;28;20050;-59
2023/08/24 11:20:55;;;;;;;12.80;9.45;;;;;;;;;;5037994;28;20725;-59
2023/08/24 11:23:23;;;;;;;13.43;9.40;;;;;;;;;;5032101;28;20057;-59
2023/08/24 11:25:54;;;;;;;15.27;9.98;;;;;;;;;;5039958;28;20504;-59
2023/08/24 11:28:21;;;;;;;15.45;10.77;;;;;;;;;;5026808;28;20054;-60
2023/08/24 11:30:48;;;;;;;13.18;10.10;;;;;;;;;;5023504;28;20058;-59
2023/08/24 11:33:14;;;;;;;17.13;10.35;;;;;;;;;;5022538;28;20335;-59
2023/08/24 11:35:45;;;;;;;16.80;10.00;;;;;;;;;;5024882;28;20081;-58
2023/08/24 11:38:11;;;;;;;18.95;11.35;;;;;;;;;;5025823;28;20050;-57
2023/08/24 11:40:38;;;;;;;16.27;10.40;;;;;;;;;;5016156;28;20050;-60
2023/08/24 11:43:08;;;;;;;19.52;10.07;;;;;;;;;;5013286;28;20876;-59
2023/08/24 11:45:36;;;;;;;13.95;10.45;;;;;;;;;;5010362;28;20168;-59
2023/08/24 11:48:04;;;;;;;13.40;9.75;;;;;;;;;;5014604;28;20049;-58
2023/08/24 11:50:33;;;;;;;16.75;10.32;;;;;;;;;;5022325;28;21044;-58
2023/08/24 11:53:01;;;;;;;20.17;10.18;;;;;;;;;;5031607;28;20188;-59
2023/08/24 11:55:28;;;;;;;19.08;12.02;;;;;;;;;;5032164;28;20731;-59
2023/08/24 11:57:55;;;;;;;13.10;10.50;;;;;;;;;;5031740;28;20053;-56
2023/08/24 12:00:22;;;;;;;14.57;11.65;;;;;;;;;;5021694;28;20073;-58
2023/08/24 12:02:48;;;;;;;12.85;10.23;;;;;;;;;;5042232;28;20053;-58
2023/08/24 12:05:24;;;;;;;22.25;10.75;;;;;;;;;;5020170;28;20600;-60
2023/08/24 12:07:52;;;;;;;16.27;10.43;;;;;;;;;;5010324;28;20049;-60
2023/08/24 12:10:19;;;;;;;16.15;10.98;;;;;;;;;;5021113;28;20054;-59
2023/08/24 12:12:46;;;;;;;13.43;10.40;;;;;;;;;;5019777;28;20061;-59
2023/08/24 12:15:16;;;;;;;14.13;9.77;;;;;;;;;;5030202;28;20060;-59
2023/08/24 12:17:43;;;;;;;15.13;10.18;;;;;;;;;;5035359;28;20383;-60
2023/08/24 12:20:21;;;;;;;11.70;9.95;;;;;;;;;;5001980;28;20047;-58
2023/08/24 12:22:54;;;;;;;17.75;9.98;;;;;;;;;;5009953;28;20057;-60
2023/08/24 12:25:24;;;;;;;15.50;10.82;;;;;;;;;;5013240;28;20529;-58
2023/08/24 12:28:11;;;;;;;17.88;9.73;;;;;;;;;;5013496;28;20548;-59
2023/08/24 12:30:50;;;;;;;17.35;10.68;;;;;;;;;;5020246;28;20057;-60
2023/08/24 12:33:23;;;;;;;15.27;10.98;;;;;;;;;;5026998;28;20057;-59
2023/08/24 12:35:50;;;;;;;11.88;9.77;;;;;;;;;;5015445;28;20154;-59
2023/08/24 12:38:17;;;;;;;13.55;9.25;;;;;;;;;;5019745;28;20132;-58
2023/08/24 12:40:43;;;;;;;13.15;9.85;;;;;;;;;;5021306;28;20668;-59
2023/08/24 12:43:10;;;;;;;13.55;10.68;;;;;;;;;;5012592;28;20054;-58
2023/08/24 12:45:39;;;;;;;14.32;10.73;;;;;;;;;;5034778;28;20575;-58
2023/08/24 12:48:07;;;;;;;15.80;11.40;;;;;;;;;;5020702;28;20081;-58
2023/08/24 12:50:37;;;;;;;18.95;11.68;;;;;;;;;;5021439;28;20521;-57
2023/08/24 12:53:06;;;;;;;13.60;11.35;;;;;;;;;;5025561;28;20065;-59
2023/08/24 12:55:33;;;;;;;18.52;11.10;;;;;;;;;;5020869;28;20149;-59
2023/08/24 12:58:00;;;;;;;13.85;10.65;;;;;;;;;;5028929;28;20096;-59
2023/08/24 13:00:27;;;;;;;14.75;10.93;;;;;;;;;;5005536;28;20137;-60
2023/08/24 13:02:54;;;;;;;14.88;10.45;;;;;;;;;;5020401;28;20057;-59
2023/08/24 13:05:20;;;;;;;13.07;11.25;;;;;;;;;;5021692;28;20058;-59
2023/08/24 13:07:47;;;;;;;19.33;11.88;;;;;;;;;;5017273;28;20324;-58
2023/08/24 13:10:14;;;;;;;14.80;12.00;;;;;;;;;;5024772;28;20145;-59
2023/08/24 13:12:40;;;;;;;17.23;10.13;;;;;;;;;;5013888;28;20068;-59
2023/08/24 13:15:07;;;;;;;15.13;10.85;;;;;;;;;;5022450;28;20050;-58
2023/08/24 13:17:33;;;;;;;17.35;12.10;;;;;;;;;;5020934;28;20062;-59
2023/08/24 13:20:00;;;;;;;14.90;9.45;;;;;;;;;;5022136;28;20084;-58
2023/08/24 13:22:26;;;;;;;11.85;9.10;;;;;;;;;;5021178;28;20105;-59
2023/08/24 13:24:53;;;;;;;12.13;9.10;;;;;;;;;;5008843;28;20141;-59
2023/08/24 13:27:19;;;;;;;14.85;10.25;;;;;;;;;;5006760;28;20097;-59
2023/08/24 13:29:45;;;;;;;15.05;9.80;;;;;;;;;;5030560;28;20452;-59
2023/08/24 13:32:12;;;;;;;19.05;11.20;;;;;;;;;;5023440;28;20065;-59
2023/08/24 13:34:38;;;;;;;16.83;9.77;;;;;;;;;;5023172;28;20054;-59
2023/08/24 13:37:05;;;;;;;12.07;10.13;;;;;;;;;;5022914;28;20061;-58
2023/08/24 13:39:34;;;;;;;16.17;11.30;;;;;;;;;;5031271;28;20061;-59
2023/08/24 13:42:01;;;;;;;11.25;9.68;;;;;;;;;;5023487;28;20053;-59
2023/08/24 13:44:28;;;;;;;15.45;10.75;;;;;;;;;;5025926;28;20503;-58
2023/08/24 13:46:54;;;;;;;12.43;10.98;;;;;;;;;;5019716;28;20046;-59
2023/08/24 13:49:21;;;;;;;12.02;10.63;;;;;;;;;;5020221;28;20054;-59
2023/08/24 13:52:04;;;;;;;15.10;11.85;;;;;;;;;;5003867;28;20065;-58
2023/08/24 13:54:32;;;;;;;14.52;11.32;;;;;;;;;;5020236;28;20066;-59
2023/08/24 13:57:00;;;;;;;17.08;12.35;;;;;;;;;;5022969;28;20679;-60
2023/08/24 13:59:26;;;;;;;15.25;11.23;;;;;;;;;;5020319;28;20058;-60
2023/08/24 14:01:53;;;;;;;15.68;12.85;;;;;;;;;;5013126;28;20058;-59
2023/08/24 14:04:19;;;;;;;17.02;11.98;;;;;;;;;;5018297;28;20523;-59
2023/08/24 14:06:48;;;;;;;17.83;11.63;;;;;;;;;;5004608;28;20078;-59
2023/08/24 14:09:14;;;;;;;18.80;13.15;;;;;;;;;;5015718;28;20604;-59
2023/08/24 14:11:41;;;;;;;12.93;11.55;;;;;;;;;;5020876;28;20064;-60
2023/08/24 14:14:07;;;;;;;19.08;12.63;;;;;;;;;;5021400;28;20054;-59
2023/08/24 14:16:34;;;;;;;14.63;11.93;;;;;;;;;;5030459;28;20064;-57
2023/08/24 14:19:01;;;;;;;16.25;11.90;;;;;;;;;;5032758;28;20075;-59
2023/08/24 14:21:31;;;;;;;22.65;12.45;;;;;;;;;;5015775;28;20604;-59
2023/08/24 14:24:10;;;;;;;20.70;14.63;;;;;;;;;;5031695;28;20053;-59
2023/08/24 14:26:39;;;;;;;16.55;12.63;;;;;;;;;;5032522;28;20549;-58
2023/08/24 14:29:06;;;;;;;20.83;14.50;;;;;;;;;;5028221;28;20058;-57
2023/08/24 14:31:32;;;;;;;16.05;12.00;;;;;;;;;;5033142;28;20057;-58
2023/08/24 14:33:59;;;;;;;18.08;14.85;;;;;;;;;;5022939;28;20144;-59